createdAt,value
2023-09-02T00:00:30.385Z,0.20
2023-09-02T00:03:32.323Z,0.20
2023-09-02T00:06:34.078Z,0.35
2023-09-02T00:09:35.798Z,0.30
2023-09-02T00:12:38.938Z,0.30
2023-09-02T00:15:42.276Z,0.40
2023-09-02T00:18:44.734Z,0.30
2023-09-02T00:21:46.388Z,0.20
2023-09-02T00:24:48.076Z,0.25
2023-09-02T00:27:51.129Z,0.50
2023-09-02T00:30:54.535Z,0.40
2023-09-02T00:33:56.214Z,0.20
2023-09-02T00:36:57.971Z,0.30
2023-09-02T00:39:59.694Z,0.40
2023-09-02T00:43:04.918Z,0.50
2023-09-02T00:46:07.946Z,0.32
2023-09-02T00:49:09.652Z,0.45
2023-09-02T00:52:11.345Z,0.50
2023-09-02T00:55:14.259Z,0.40
2023-09-02T00:58:17.593Z,0.45
2023-09-02T01:01:19.994Z,0.50
2023-09-02T01:04:22.655Z,0.75
2023-09-02T01:07:25.497Z,0.43
2023-09-02T01:10:28.204Z,0.40
2023-09-02T01:13:31.612Z,0.52
2023-09-02T01:16:33.644Z,0.30
2023-09-02T01:19:37.195Z,0.40
2023-09-02T01:22:59.187Z,0.47
2023-09-02T01:26:15.141Z,0.32
2023-09-02T01:29:21.232Z,0.40
2023-09-02T01:32:25.598Z,0.50
2023-09-02T01:35:30.438Z,0.47
2023-09-02T01:38:33.568Z,0.30
2023-09-02T01:41:35.922Z,0.30
2023-09-02T01:44:40.753Z,0.30
2023-09-02T01:47:43.041Z,0.20
2023-09-02T01:50:45.599Z,0.77
2023-09-02T01:53:47.562Z,0.50
2023-09-02T01:56:50.295Z,0.40
2023-09-02T01:59:53.795Z,0.70
2023-09-02T02:02:56.144Z,0.65
2023-09-02T02:06:01.005Z,0.63
2023-09-02T02:09:05.446Z,0.40
2023-09-02T02:12:09.233Z,0.22
2023-09-02T02:15:13.119Z,0.40
2023-09-02T02:18:15.052Z,0.40
2023-09-02T02:21:17.301Z,0.30
2023-09-02T02:24:19.046Z,0.10
2023-09-02T02:27:21.393Z,0.50
2023-09-02T02:30:24.485Z,0.43
2023-09-02T02:33:26.486Z,0.30
2023-09-02T02:36:28.794Z,0.40
2023-09-02T02:39:30.870Z,0.15
2023-09-02T02:42:33.553Z,0.30
2023-09-02T02:45:36.639Z,0.30
2023-09-02T02:48:38.420Z,0.63
2023-09-02T02:51:40.107Z,0.32
2023-09-02T02:54:41.873Z,0.15
2023-09-02T02:57:44.274Z,0.40
2023-09-02T03:00:48.184Z,0.22
2023-09-02T03:03:52.965Z,0.40
2023-09-02T03:06:54.679Z,0.30
2023-09-02T03:09:56.528Z,0.35
2023-09-02T03:12:58.325Z,0.40
2023-09-02T03:16:02.286Z,0.35
2023-09-02T03:19:04.231Z,0.32
2023-09-02T03:22:07.573Z,0.20
2023-09-02T03:25:09.735Z,0.35
2023-09-02T03:28:13.976Z,0.25
2023-09-02T03:31:17.142Z,0.30
2023-09-02T03:34:19.609Z,0.30
2023-09-02T03:37:21.670Z,0.30
2023-09-02T03:40:23.426Z,0.40
2023-09-02T03:43:26.438Z,0.22
2023-09-02T03:46:33.468Z,0.30
2023-09-02T03:49:36.024Z,0.40
2023-09-02T03:52:37.724Z,0.25
2023-09-02T03:55:39.523Z,0.20
2023-09-02T03:58:41.285Z,0.30
2023-09-02T04:01:46.038Z,0.30
2023-09-02T04:04:47.864Z,0.20
2023-09-02T04:07:49.762Z,0.30
2023-09-02T04:10:52.934Z,0.28
2023-09-02T04:13:54.830Z,0.50
2023-09-02T04:17:00.128Z,0.30
2023-09-02T04:20:02.355Z,0.30
2023-09-02T04:23:05.799Z,0.40
2023-09-02T04:26:07.568Z,0.93
2023-09-02T04:29:09.333Z,0.20
2023-09-02T04:32:12.438Z,0.40
2023-09-02T04:35:15.586Z,0.47
2023-09-02T04:38:17.406Z,0.30
2023-09-02T04:41:23.328Z,0.40
2023-09-02T04:44:26.110Z,0.43
2023-09-02T04:47:29.140Z,0.30
2023-09-02T04:50:31.719Z,0.30
2023-09-02T04:53:33.520Z,0.60
2023-09-02T04:56:35.295Z,0.40
2023-09-02T04:59:37.072Z,0.30
2023-09-02T05:02:43.510Z,0.40
2023-09-02T05:05:45.379Z,0.30
2023-09-02T05:08:55.111Z,0.28
2023-09-02T05:11:58.204Z,0.30
2023-09-02T05:15:01.147Z,0.30
2023-09-02T05:18:05.412Z,0.30
2023-09-02T05:21:07.236Z,0.20
2023-09-02T05:24:09.645Z,0.40
2023-09-02T05:27:11.380Z,0.20
2023-09-02T05:30:13.843Z,0.30
2023-09-02T05:33:17.607Z,0.38
2023-09-02T05:36:19.482Z,0.30
2023-09-02T05:39:21.150Z,2.08
2023-09-02T05:42:22.834Z,0.50
2023-09-02T05:45:24.553Z,0.30
2023-09-02T05:48:27.520Z,0.30
2023-09-02T05:51:29.233Z,0.40
2023-09-02T05:54:30.927Z,0.30
2023-09-02T05:57:33.344Z,0.30
2023-09-02T06:00:37.320Z,0.40
2023-09-02T06:03:41.953Z,0.73
2023-09-02T06:06:43.931Z,0.38
2023-09-02T06:09:45.633Z,0.35
2023-09-02T06:12:47.305Z,1.40
2023-09-02T06:15:49.169Z,0.30
2023-09-02T06:18:52.282Z,0.35
2023-09-02T06:21:53.978Z,0.57
2023-09-02T06:24:56.186Z,0.65
2023-09-02T06:27:58.010Z,0.40
2023-09-02T06:30:59.871Z,0.40
2023-09-02T06:34:02.968Z,0.40
2023-09-02T06:37:05.080Z,0.50
2023-09-02T06:40:07.815Z,0.30
2023-09-02T06:43:09.628Z,0.40
2023-09-02T06:46:13.251Z,0.45
2023-09-02T06:49:16.358Z,0.50
2023-09-02T06:52:18.238Z,0.30
2023-09-02T06:55:20.032Z,0.57
2023-09-02T06:58:21.831Z,0.38
2023-09-02T07:01:23.924Z,0.50
2023-09-02T07:04:27.304Z,0.40
2023-09-02T07:07:29.889Z,0.40
2023-09-02T07:10:31.554Z,0.60
2023-09-02T07:13:33.301Z,0.47
2023-09-02T07:16:35.259Z,0.52
2023-09-02T07:19:38.423Z,0.45
2023-09-02T07:22:40.235Z,0.40
2023-09-02T07:25:41.908Z,0.35
2023-09-02T07:28:43.973Z,0.30
2023-09-02T07:31:45.717Z,0.40
2023-09-02T07:34:48.822Z,0.40
2023-09-02T07:37:50.549Z,0.30
2023-09-02T07:40:52.279Z,0.22
2023-09-02T07:43:54.052Z,0.43
2023-09-02T07:46:55.922Z,0.38
2023-09-02T07:49:58.981Z,0.40
2023-09-02T07:53:00.694Z,0.40
2023-09-02T07:56:02.854Z,0.20
2023-09-02T07:59:06.803Z,0.30
2023-09-02T08:02:08.543Z,0.20
2023-09-02T08:05:11.608Z,0.43
2023-09-02T08:08:14.859Z,0.60
2023-09-02T08:11:19.746Z,0.38
2023-09-02T08:14:21.450Z,0.50
2023-09-02T08:17:23.205Z,0.50
2023-09-02T08:20:26.860Z,0.60
2023-09-02T08:23:28.613Z,0.50
2023-09-02T08:26:30.522Z,0.80
2023-09-02T08:29:33.654Z,0.70
2023-09-02T08:32:35.531Z,0.70
2023-09-02T08:35:38.953Z,0.40
2023-09-02T08:38:40.674Z,0.50
2023-09-02T08:41:45.498Z,0.80
2023-09-02T08:44:48.284Z,0.75
2023-09-02T08:47:55.271Z,0.35
2023-09-02T08:50:58.598Z,0.40
2023-09-02T08:54:01.596Z,0.32
2023-09-02T08:57:03.935Z,0.30
2023-09-02T09:00:07.851Z,0.35
2023-09-02T09:03:12.989Z,0.40
2023-09-02T09:06:19.914Z,0.30
2023-09-02T09:09:23.844Z,0.32
2023-09-02T09:12:26.790Z,0.20
2023-09-02T09:15:29.462Z,0.60
2023-09-02T09:18:31.219Z,0.40
2023-09-02T09:21:34.310Z,0.40
2023-09-02T09:24:38.761Z,0.20
2023-09-02T09:27:40.495Z,0.50
2023-09-02T09:30:42.461Z,0.60
2023-09-02T09:33:49.988Z,0.30
2023-09-02T09:36:58.624Z,0.25
2023-09-02T09:40:02.618Z,0.30
2023-09-02T09:43:17.094Z,0.30
2023-09-02T09:46:19.195Z,0.50
2023-09-02T09:49:22.638Z,0.38
2023-09-02T09:52:25.634Z,0.30
2023-09-02T09:55:27.644Z,0.28
2023-09-02T09:58:29.555Z,0.50
2023-09-02T10:01:31.394Z,0.38
2023-09-02T10:04:33.626Z,0.30
2023-09-02T10:07:36.906Z,0.38
2023-09-02T10:10:39.872Z,0.30
2023-09-02T10:13:42.644Z,0.30
2023-09-02T10:16:46.115Z,0.30
2023-09-02T10:19:48.464Z,0.30
2023-09-02T10:22:53.013Z,0.22
2023-09-02T10:26:01.634Z,0.30
2023-09-02T10:29:07.951Z,0.30
2023-09-02T10:32:14.802Z,0.20
2023-09-02T10:35:20.256Z,0.30
2023-09-02T10:38:25.259Z,0.30
2023-09-02T10:41:28.908Z,0.20
2023-09-02T10:44:31.284Z,0.28
2023-09-02T10:47:33.171Z,0.20
2023-09-02T10:50:35.442Z,0.30
2023-09-02T10:53:58.900Z,0.30
2023-09-02T10:57:13.834Z,0.30
2023-09-02T11:00:17.747Z,0.30
2023-09-02T11:03:42.466Z,0.40
2023-09-02T11:07:21.742Z,0.32
2023-09-02T11:10:55.379Z,0.30
2023-09-02T11:14:19.084Z,0.30
2023-09-02T11:17:28.644Z,0.40
2023-09-02T11:20:49.327Z,0.30
2023-09-02T11:23:51.205Z,0.30
2023-09-02T11:26:55.710Z,0.30
2023-09-02T11:30:09.331Z,0.30
2023-09-02T11:33:19.516Z,0.30
2023-09-02T11:36:21.985Z,0.50
2023-09-02T11:39:26.303Z,0.40
2023-09-02T11:45:35.666Z,0.40
2023-09-02T11:48:37.401Z,0.30
2023-09-02T11:51:39.359Z,0.40
2023-09-02T11:54:47.243Z,0.30
2023-09-02T11:57:50.940Z,0.30
2023-09-02T12:00:52.878Z,0.20
2023-09-02T12:03:56.686Z,0.30
2023-09-02T12:06:58.546Z,0.35
2023-09-02T12:10:05.362Z,0.30
2023-09-02T12:13:10.010Z,0.38
2023-09-02T12:16:17.135Z,0.25
2023-09-02T12:19:20.952Z,0.40
2023-09-02T12:22:23.372Z,0.30
2023-09-02T12:25:25.833Z,0.30
2023-09-02T12:28:30.536Z,0.50
2023-09-02T12:31:32.390Z,0.40
2023-09-02T12:34:40.009Z,0.40
2023-09-02T12:37:41.791Z,0.50
2023-09-02T12:40:53.120Z,0.60
2023-09-02T12:43:56.282Z,0.50
2023-09-02T12:46:57.998Z,0.35
2023-09-02T12:50:04.663Z,0.30
2023-09-02T12:53:06.411Z,0.55
2023-09-02T12:56:10.658Z,0.60
2023-09-02T12:59:13.915Z,0.50
2023-09-02T13:02:15.813Z,0.32
2023-09-02T13:05:17.805Z,0.50
2023-09-02T13:08:19.623Z,0.40
2023-09-02T13:11:23.361Z,0.40
2023-09-02T13:14:28.305Z,0.40
2023-09-02T13:17:30.108Z,0.47
2023-09-02T13:20:36.772Z,0.63
2023-09-02T13:23:39.079Z,0.35
2023-09-02T13:26:44.433Z,0.30
2023-09-02T13:29:48.427Z,0.40
2023-09-02T13:35:51.954Z,0.30
2023-09-02T13:38:53.661Z,0.30
2023-09-02T13:41:55.433Z,0.30
2023-09-02T13:45:08.289Z,0.40
2023-09-02T13:48:10.267Z,0.43
2023-09-02T13:51:21.799Z,0.40
2023-09-02T13:54:26.267Z,0.43
2023-09-02T13:57:28.398Z,0.40
2023-09-02T14:00:38.908Z,0.40
2023-09-02T14:03:42.818Z,0.60
2023-09-02T14:06:44.586Z,0.30
2023-09-02T14:09:46.750Z,0.50
2023-09-02T14:12:48.729Z,0.40
2023-09-02T14:15:52.128Z,0.40
2023-09-02T14:19:01.042Z,0.43
2023-09-02T14:22:02.934Z,0.40
2023-09-02T14:25:05.689Z,0.30
2023-09-02T14:28:07.436Z,0.45
2023-09-02T14:31:10.698Z,0.45
2023-09-02T14:34:12.472Z,0.40
2023-09-02T14:37:14.283Z,0.50
2023-09-02T14:40:16.057Z,0.35
2023-09-02T14:43:18.461Z,0.30
2023-09-02T14:46:24.501Z,0.35
2023-09-02T14:49:27.513Z,0.30
2023-09-02T14:52:32.778Z,0.40
2023-09-02T14:55:35.877Z,0.50
2023-09-02T14:58:37.730Z,0.30
2023-09-02T15:01:43.483Z,0.30
2023-09-02T15:04:45.281Z,0.30
2023-09-02T15:07:47.559Z,0.30
2023-09-02T15:10:49.408Z,0.20
2023-09-02T15:13:53.328Z,0.30
2023-09-02T15:20:02.249Z,0.30
2023-09-02T15:23:04.807Z,0.32
2023-09-02T15:26:06.863Z,0.40
2023-09-02T15:29:14.012Z,0.30
2023-09-02T15:32:17.147Z,0.30
2023-09-02T15:35:18.828Z,0.30
2023-09-02T15:38:20.698Z,0.32
2023-09-02T15:41:22.402Z,0.25
2023-09-02T15:44:24.148Z,0.20
2023-09-02T15:47:27.201Z,0.40
2023-09-02T15:50:30.745Z,0.45
2023-09-02T15:53:33.637Z,0.20
2023-09-02T15:56:35.375Z,0.40
2023-09-02T15:59:37.098Z,0.25
2023-09-02T16:02:40.386Z,0.43
2023-09-02T16:05:42.174Z,0.30
2023-09-02T16:08:43.905Z,0.30
2023-09-02T16:11:45.617Z,0.30
2023-09-02T16:14:47.330Z,0.43
2023-09-02T16:17:50.417Z,0.40
2023-09-02T16:20:53.654Z,0.30
2023-09-02T16:23:57.175Z,0.40
2023-09-02T16:26:58.918Z,0.40
2023-09-02T16:30:03.076Z,0.50
2023-09-02T16:33:06.524Z,0.47
2023-09-02T16:36:10.086Z,0.40
2023-09-02T16:39:12.860Z,0.40
2023-09-02T16:42:14.592Z,0.30
2023-09-02T16:45:20.965Z,0.30
2023-09-02T16:48:25.150Z,0.30
2023-09-02T16:51:27.009Z,0.30
2023-09-02T16:54:32.177Z,0.40
2023-09-02T16:57:39.349Z,0.32
2023-09-02T17:00:41.048Z,0.50
2023-09-02T17:03:50.226Z,0.50
2023-09-02T17:06:51.942Z,0.55
2023-09-02T17:09:53.644Z,0.40
2023-09-02T17:12:55.884Z,0.50
2023-09-02T17:15:57.764Z,0.40
2023-09-02T17:19:01.264Z,0.40
2023-09-02T17:22:04.294Z,0.50
2023-09-02T17:25:06.545Z,0.40
2023-09-02T17:28:10.599Z,0.75
2023-09-02T17:34:15.369Z,0.30
2023-09-02T17:37:17.070Z,0.50
2023-09-02T17:40:18.824Z,0.40
2023-09-02T17:43:20.599Z,0.40
2023-09-02T17:46:22.923Z,0.50
2023-09-02T17:49:26.034Z,0.50
2023-09-02T17:52:27.725Z,0.60
2023-09-02T17:55:29.536Z,0.50
2023-09-02T17:58:31.322Z,0.40
2023-09-02T18:01:33.062Z,0.45
2023-09-02T18:04:36.188Z,0.43
2023-09-02T18:07:38.695Z,0.70
2023-09-02T18:10:40.511Z,0.32
2023-09-02T18:13:42.231Z,0.40
2023-09-02T18:16:43.935Z,0.35
2023-09-02T18:19:48.384Z,0.45
2023-09-02T18:22:50.162Z,0.60
2023-09-02T18:25:51.876Z,0.50
2023-09-02T18:28:53.699Z,0.50
2023-09-02T18:31:55.601Z,0.50
2023-09-02T18:34:58.750Z,5.43
2023-09-02T18:38:00.504Z,6.35
2023-09-02T18:41:02.359Z,6.25
2023-09-02T18:44:04.323Z,9.50
2023-09-02T18:47:06.188Z,12.75
2023-09-02T18:50:09.774Z,3.83
2023-09-02T18:53:11.552Z,1.60
2023-09-02T18:56:13.427Z,1.08
2023-09-02T18:59:15.215Z,2.10
2023-09-02T19:02:17.215Z,2.33
2023-09-02T19:05:20.264Z,1.50
2023-09-02T19:08:22.182Z,1.60
2023-09-02T19:11:24.191Z,4.00
2023-09-02T19:14:26.043Z,4.10
2023-09-02T19:17:27.923Z,4.55
2023-09-02T19:20:31.080Z,3.25
2023-09-02T19:23:33.428Z,1.83
2023-09-02T19:26:36.283Z,2.53
2023-09-02T19:29:38.111Z,5.05
2023-09-02T19:32:39.997Z,4.53
2023-09-02T19:35:43.228Z,2.50
2023-09-02T19:38:44.896Z,3.05
2023-09-02T19:41:48.718Z,3.45
2023-09-02T19:44:50.617Z,2.10
2023-09-02T19:47:52.403Z,1.67
2023-09-02T19:50:55.474Z,0.70
2023-09-02T19:53:57.240Z,0.60
2023-09-02T19:56:59.080Z,0.50
2023-09-02T20:00:01.344Z,0.82
2023-09-02T20:03:16.781Z,1.23
2023-09-02T20:06:20.048Z,1.10
2023-09-02T20:09:21.806Z,1.00
2023-09-02T20:12:23.535Z,0.68
2023-09-02T20:15:25.418Z,4.80
2023-09-02T20:18:27.320Z,3.47
2023-09-02T20:21:30.726Z,1.05
2023-09-02T20:24:35.360Z,1.20
2023-09-02T20:27:38.058Z,1.42
2023-09-02T20:30:39.889Z,26.42
2023-09-02T20:33:41.695Z,20.23
2023-09-02T20:36:45.076Z,6.85
2023-09-02T20:39:46.881Z,4.10
2023-09-02T20:42:48.909Z,5.18
2023-09-02T20:45:50.664Z,3.50
2023-09-02T20:48:52.775Z,1.05
2023-09-02T20:51:55.977Z,1.17
2023-09-02T20:54:57.699Z,0.90
2023-09-02T20:57:59.645Z,1.10
2023-09-02T21:01:04.334Z,0.93
2023-09-02T21:04:06.423Z,0.82
2023-09-02T21:07:09.899Z,0.98
2023-09-02T21:10:11.774Z,0.93
2023-09-02T21:13:13.710Z,0.80
2023-09-02T21:16:17.968Z,0.98
2023-09-02T21:22:22.627Z,1.08
2023-09-02T21:25:24.472Z,1.98
2023-09-02T21:28:26.233Z,2.70
2023-09-02T21:31:27.958Z,3.35
2023-09-02T21:34:29.692Z,2.60
2023-09-02T21:37:32.795Z,2.20
2023-09-02T21:40:34.584Z,2.10
2023-09-02T21:43:38.651Z,2.05
2023-09-02T21:46:42.193Z,1.10
2023-09-02T21:49:46.629Z,0.70
2023-09-02T21:55:51.217Z,0.93
2023-09-02T21:58:52.878Z,0.70
2023-09-02T22:01:54.731Z,0.40
2023-09-02T22:04:56.758Z,0.47
2023-09-02T22:08:00.053Z,0.70
2023-09-02T22:11:02.087Z,0.88
2023-09-02T22:14:03.829Z,0.60
2023-09-02T22:17:06.325Z,0.77
2023-09-02T22:20:08.832Z,0.82
2023-09-02T22:23:11.931Z,0.88
2023-09-02T22:26:13.661Z,0.80
2023-09-02T22:29:15.335Z,0.70
2023-09-02T22:32:17.002Z,0.77
2023-09-02T22:35:20.248Z,0.50
2023-09-02T22:38:34.166Z,0.80
2023-09-02T22:41:51.019Z,0.60
2023-09-02T22:44:52.770Z,0.80
2023-09-02T22:47:58.607Z,0.57
2023-09-02T22:51:02.769Z,0.40
2023-09-02T22:54:05.909Z,0.63
2023-09-02T22:57:07.656Z,0.70
2023-09-02T23:00:10.723Z,0.60
2023-09-02T23:03:12.421Z,0.77
2023-09-02T23:06:14.563Z,0.80
2023-09-02T23:09:17.707Z,0.52
2023-09-02T23:12:21.411Z,0.52
2023-09-02T23:15:24.174Z,1.27
2023-09-02T23:18:25.981Z,0.80
2023-09-02T23:21:27.684Z,0.98
2023-09-02T23:24:30.686Z,0.60
2023-09-02T23:27:32.407Z,0.50
2023-09-02T23:30:34.134Z,0.65
2023-09-02T23:33:36.158Z,0.70
2023-09-02T23:36:37.973Z,0.60
2023-09-02T23:39:41.015Z,0.77
2023-09-02T23:42:43.551Z,0.77
2023-09-02T23:45:45.349Z,0.52
2023-09-02T23:48:47.027Z,0.77
2023-09-02T23:51:48.885Z,0.57
2023-09-02T23:54:51.987Z,0.80
2023-09-02T23:57:55.868Z,0.60
